sensor_id;sensor_type;location;lat;lon;timestamp;pressure;altitude;pressure_sealevel;temperature;humidity
45991;BME280;31721;41.740;-88.000;2023-03-14T00:01:45;99624.48;;;-3.80;46.28
45991;BME280;31721;41.740;-88.000;2023-03-14T00:04:13;99627.18;;;-4.32;46.53
45991;BME280;31721;41.740;-88.000;2023-03-14T00:06:41;99627.19;;;-3.92;47.06
45991;BME280;31721;41.740;-88.000;2023-03-14T00:09:08;99632.27;;;-3.77;47.04
45991;BME280;31721;41.740;-88.000;2023-03-14T00:11:37;99632.88;;;-4.25;47.20
45991;BME280;31721;41.740;-88.000;2023-03-14T00:14:05;99629.13;;;-3.79;47.76
45991;BME280;31721;41.740;-88.000;2023-03-14T00:16:33;99637.14;;;-3.82;46.45
45991;BME280;31721;41.740;-88.000;2023-03-14T00:19:00;99632.79;;;-3.59;47.34
45991;BME280;31721;41.740;-88.000;2023-03-14T00:21:28;99635.20;;;-3.46;46.35
45991;BME280;31721;41.740;-88.000;2023-03-14T00:23:56;99636.42;;;-3.77;45.89
45991;BME280;31721;41.740;-88.000;2023-03-14T00:26:25;99636.82;;;-3.80;47.05
45991;BME280;31721;41.740;-88.000;2023-03-14T00:28:54;99642.95;;;-3.14;47.07
45991;BME280;31721;41.740;-88.000;2023-03-14T00:31:22;99645.54;;;-3.26;47.01
45991;BME280;31721;41.740;-88.000;2023-03-14T00:33:52;99646.31;;;-2.95;46.78
45991;BME280;31721;41.740;-88.000;2023-03-14T00:36:20;99650.90;;;-3.48;46.87
45991;BME280;31721;41.740;-88.000;2023-03-14T00:38:50;99651.08;;;-3.54;45.95
45991;BME280;31721;41.740;-88.000;2023-03-14T00:41:21;99657.94;;;-3.04;46.57
45991;BME280;31721;41.740;-88.000;2023-03-14T00:43:49;99661.60;;;-2.90;46.77
45991;BME280;31721;41.740;-88.000;2023-03-14T00:46:18;99665.66;;;-3.18;45.95
45991;BME280;31721;41.740;-88.000;2023-03-14T00:48:46;99666.11;;;-3.09;46.69
45991;BME280;31721;41.740;-88.000;2023-03-14T00:51:14;99667.22;;;-2.84;46.89
45991;BME280;31721;41.740;-88.000;2023-03-14T00:53:43;99671.24;;;-2.79;47.03
45991;BME280;31721;41.740;-88.000;2023-03-14T00:56:12;99673.13;;;-2.94;46.56
45991;BME280;31721;41.740;-88.000;2023-03-14T00:58:40;99675.17;;;-2.62;47.03
45991;BME280;31721;41.740;-88.000;2023-03-14T01:01:12;99672.50;;;-3.33;46.93
45991;BME280;31721;41.740;-88.000;2023-03-14T01:03:40;99673.99;;;-3.56;46.00
45991;BME280;31721;41.740;-88.000;2023-03-14T01:06:10;99675.63;;;-3.57;46.95
45991;BME280;31721;41.740;-88.000;2023-03-14T01:08:40;99679.32;;;-3.18;47.12
45991;BME280;31721;41.740;-88.000;2023-03-14T01:11:08;99674.66;;;-3.45;46.88
45991;BME280;31721;41.740;-88.000;2023-03-14T01:13:37;99676.00;;;-3.44;46.92
45991;BME280;31721;41.740;-88.000;2023-03-14T01:16:08;99675.92;;;-3.53;47.18
45991;BME280;31721;41.740;-88.000;2023-03-14T01:18:38;99677.59;;;-3.77;47.05
45991;BME280;31721;41.740;-88.000;2023-03-14T01:21:13;99678.97;;;-3.24;47.76
45991;BME280;31721;41.740;-88.000;2023-03-14T01:23:42;99677.00;;;-3.26;47.44
45991;BME280;31721;41.740;-88.000;2023-03-14T01:26:11;99679.54;;;-3.04;47.46
45991;BME280;31721;41.740;-88.000;2023-03-14T01:28:40;99677.22;;;-3.69;47.06
45991;BME280;31721;41.740;-88.000;2023-03-14T01:31:09;99684.05;;;-3.20;47.73
45991;BME280;31721;41.740;-88.000;2023-03-14T01:33:37;99686.52;;;-3.57;47.09
45991;BME280;31721;41.740;-88.000;2023-03-14T01:36:08;99687.83;;;-3.30;47.96
45991;BME280;31721;41.740;-88.000;2023-03-14T01:38:37;99689.75;;;-3.48;47.98
45991;BME280;31721;41.740;-88.000;2023-03-14T01:41:08;99691.84;;;-3.44;47.83
45991;BME280;31721;41.740;-88.000;2023-03-14T01:43:39;99690.95;;;-3.22;48.27
45991;BME280;31721;41.740;-88.000;2023-03-14T01:46:19;99694.06;;;-3.22;48.08
45991;BME280;31721;41.740;-88.000;2023-03-14T01:48:55;99696.62;;;-3.25;48.27
45991;BME280;31721;41.740;-88.000;2023-03-14T01:51:29;99701.02;;;-3.21;48.71
45991;BME280;31721;41.740;-88.000;2023-03-14T01:54:04;99700.86;;;-3.20;48.71
45991;BME280;31721;41.740;-88.000;2023-03-14T01:56:33;99704.52;;;-3.04;48.55
45991;BME280;31721;41.740;-88.000;2023-03-14T01:59:04;99703.20;;;-3.50;48.98
45991;BME280;31721;41.740;-88.000;2023-03-14T02:01:35;99704.77;;;-2.97;48.83
45991;BME280;31721;41.740;-88.000;2023-03-14T02:04:06;99703.52;;;-3.13;48.85
45991;BME280;31721;41.740;-88.000;2023-03-14T02:06:42;99702.30;;;-3.46;49.28
45991;BME280;31721;41.740;-88.000;2023-03-14T02:09:13;99701.40;;;-3.39;49.53
45991;BME280;31721;41.740;-88.000;2023-03-14T02:11:42;99705.97;;;-2.99;49.48
45991;BME280;31721;41.740;-88.000;2023-03-14T02:14:17;99706.84;;;-3.38;49.59
45991;BME280;31721;41.740;-88.000;2023-03-14T02:16:49;99715.13;;;-2.94;49.41
45991;BME280;31721;41.740;-88.000;2023-03-14T02:19:20;99714.39;;;-3.20;49.08
45991;BME280;31721;41.740;-88.000;2023-03-14T02:21:57;99714.49;;;-3.92;50.16
45991;BME280;31721;41.740;-88.000;2023-03-14T02:24:37;99717.37;;;-3.50;49.61
45991;BME280;31721;41.740;-88.000;2023-03-14T02:27:11;99721.83;;;-3.80;50.22
45991;BME280;31721;41.740;-88.000;2023-03-14T02:29:48;99717.39;;;-3.34;49.74
45991;BME280;31721;41.740;-88.000;2023-03-14T02:32:18;99719.99;;;-3.18;49.23
45991;BME280;31721;41.740;-88.000;2023-03-14T02:34:50;99719.10;;;-3.02;49.33
45991;BME280;31721;41.740;-88.000;2023-03-14T02:37:23;99722.47;;;-3.16;49.45
45991;BME280;31721;41.740;-88.000;2023-03-14T02:39:52;99724.78;;;-3.59;49.23
45991;BME280;31721;41.740;-88.000;2023-03-14T02:42:21;99730.59;;;-3.37;49.70
45991;BME280;31721;41.740;-88.000;2023-03-14T02:44:52;99730.69;;;-3.21;49.01
45991;BME280;31721;41.740;-88.000;2023-03-14T02:47:27;99729.54;;;-3.52;49.80
45991;BME280;31721;41.740;-88.000;2023-03-14T02:50:01;99727.67;;;-3.26;49.43
45991;BME280;31721;41.740;-88.000;2023-03-14T02:52:30;99725.76;;;-3.32;49.27
45991;BME280;31721;41.740;-88.000;2023-03-14T02:54:58;99728.19;;;-3.17;49.27
45991;BME280;31721;41.740;-88.000;2023-03-14T02:57:27;99727.65;;;-3.50;49.29
45991;BME280;31721;41.740;-88.000;2023-03-14T02:59:58;99731.12;;;-3.89;49.44
45991;BME280;31721;41.740;-88.000;2023-03-14T03:02:26;99731.45;;;-3.50;49.18
45991;BME280;31721;41.740;-88.000;2023-03-14T03:04:55;99732.74;;;-3.08;49.23
45991;BME280;31721;41.740;-88.000;2023-03-14T03:07:23;99737.65;;;-3.79;49.11
45991;BME280;31721;41.740;-88.000;2023-03-14T03:09:51;99738.39;;;-3.71;48.91
45991;BME280;31721;41.740;-88.000;2023-03-14T03:12:19;99739.13;;;-3.53;49.32
45991;BME280;31721;41.740;-88.000;2023-03-14T03:14:48;99738.37;;;-3.57;49.35
45991;BME280;31721;41.740;-88.000;2023-03-14T03:17:16;99740.05;;;-3.47;49.30
45991;BME280;31721;41.740;-88.000;2023-03-14T03:19:44;99741.39;;;-3.68;49.17
45991;BME280;31721;41.740;-88.000;2023-03-14T03:22:12;99743.74;;;-3.30;49.16
45991;BME280;31721;41.740;-88.000;2023-03-14T03:24:41;99747.12;;;-3.56;49.33
45991;BME280;31721;41.740;-88.000;2023-03-14T03:27:09;99747.29;;;-3.09;49.29
45991;BME280;31721;41.740;-88.000;2023-03-14T03:29:36;99755.07;;;-2.91;49.34
45991;BME280;31721;41.740;-88.000;2023-03-14T03:32:04;99755.64;;;-2.68;49.17
45991;BME280;31721;41.740;-88.000;2023-03-14T03:34:32;99758.69;;;-2.62;48.85
45991;BME280;31721;41.740;-88.000;2023-03-14T03:37:00;99757.04;;;-2.66;49.10
45991;BME280;31721;41.740;-88.000;2023-03-14T03:39:28;99758.08;;;-2.81;48.37
45991;BME280;31721;41.740;-88.000;2023-03-14T03:41:56;99761.26;;;-3.33;48.97
45991;BME280;31721;41.740;-88.000;2023-03-14T03:44:25;99761.08;;;-3.23;49.04
45991;BME280;31721;41.740;-88.000;2023-03-14T03:46:52;99763.45;;;-3.05;49.30
45991;BME280;31721;41.740;-88.000;2023-03-14T03:49:20;99765.50;;;-2.82;49.11
45991;BME280;31721;41.740;-88.000;2023-03-14T03:51:48;99768.81;;;-3.53;49.38
45991;BME280;31721;41.740;-88.000;2023-03-14T03:54:16;99774.90;;;-3.11;49.05
45991;BME280;31721;41.740;-88.000;2023-03-14T03:56:43;99774.03;;;-3.41;48.73
45991;BME280;31721;41.740;-88.000;2023-03-14T03:59:11;99777.37;;;-3.32;48.88
45991;BME280;31721;41.740;-88.000;2023-03-14T04:01:39;99778.08;;;-3.28;48.84
45991;BME280;31721;41.740;-88.000;2023-03-14T04:04:07;99778.17;;;-3.26;48.31
45991;BME280;31721;41.740;-88.000;2023-03-14T04:06:35;99778.71;;;-3.10;48.44
45991;BME280;31721;41.740;-88.000;2023-03-14T04:09:03;99775.14;;;-3.43;48.87
45991;BME280;31721;41.740;-88.000;2023-03-14T04:11:31;99772.94;;;-3.28;48.60
45991;BME280;31721;41.740;-88.000;2023-03-14T04:13:59;99778.40;;;-3.85;48.70
45991;BME280;31721;41.740;-88.000;2023-03-14T04:16:28;99775.09;;;-3.20;48.43
45991;BME280;31721;41.740;-88.000;2023-03-14T04:18:56;99779.02;;;-3.23;48.32
45991;BME280;31721;41.740;-88.000;2023-03-14T04:21:24;99781.22;;;-3.63;48.50
45991;BME280;31721;41.740;-88.000;2023-03-14T04:23:53;99783.99;;;-3.64;48.65
45991;BME280;31721;41.740;-88.000;2023-03-14T04:26:21;99785.68;;;-3.70;48.47
45991;BME280;31721;41.740;-88.000;2023-03-14T04:28:49;99784.51;;;-3.41;48.44
45991;BME280;31721;41.740;-88.000;2023-03-14T04:31:19;99784.25;;;-3.52;48.69
45991;BME280;31721;41.740;-88.000;2023-03-14T04:33:47;99787.58;;;-3.42;48.57
45991;BME280;31721;41.740;-88.000;2023-03-14T04:36:16;99790.04;;;-3.44;48.25
45991;BME280;31721;41.740;-88.000;2023-03-14T04:38:44;99790.69;;;-3.21;48.75
45991;BME280;31721;41.740;-88.000;2023-03-14T04:41:12;99793.08;;;-3.15;48.64
45991;BME280;31721;41.740;-88.000;2023-03-14T04:43:39;99797.19;;;-2.99;48.72
45991;BME280;31721;41.740;-88.000;2023-03-14T04:46:08;99797.81;;;-2.89;48.59
45991;BME280;31721;41.740;-88.000;2023-03-14T04:48:36;99792.17;;;-2.98;48.01
45991;BME280;31721;41.740;-88.000;2023-03-14T04:51:04;99791.43;;;-2.93;48.67
45991;BME280;31721;41.740;-88.000;2023-03-14T04:53:32;99790.86;;;-2.82;48.45
45991;BME280;31721;41.740;-88.000;2023-03-14T04:56:00;99787.77;;;-2.69;48.47
45991;BME280;31721;41.740;-88.000;2023-03-14T04:58:27;99786.58;;;-2.61;48.46
45991;BME280;31721;41.740;-88.000;2023-03-14T05:00:55;99788.72;;;-2.51;48.45
45991;BME280;31721;41.740;-88.000;2023-03-14T05:03:23;99785.89;;;-2.56;47.98
45991;BME280;31721;41.740;-88.000;2023-03-14T05:05:51;99785.77;;;-2.51;48.04
45991;BME280;31721;41.740;-88.000;2023-03-14T05:08:19;99783.76;;;-2.41;48.13
45991;BME280;31721;41.740;-88.000;2023-03-14T05:10:52;99783.34;;;-2.38;48.11
45991;BME280;31721;41.740;-88.000;2023-03-14T05:13:20;99783.58;;;-2.78;47.99
45991;BME280;31721;41.740;-88.000;2023-03-14T05:15:48;99783.85;;;-2.44;48.01
45991;BME280;31721;41.740;-88.000;2023-03-14T05:18:15;99785.59;;;-2.48;48.14
45991;BME280;31721;41.740;-88.000;2023-03-14T05:20:43;99784.21;;;-2.38;48.03
45991;BME280;31721;41.740;-88.000;2023-03-14T05:23:12;99781.70;;;-2.36;47.90
45991;BME280;31721;41.740;-88.000;2023-03-14T05:25:42;99781.22;;;-2.42;47.73
45991;BME280;31721;41.740;-88.000;2023-03-14T05:28:10;99778.51;;;-2.35;47.68
45991;BME280;31721;41.740;-88.000;2023-03-14T05:30:37;99780.52;;;-2.42;47.56
45991;BME280;31721;41.740;-88.000;2023-03-14T05:33:05;99783.41;;;-2.52;47.51
45991;BME280;31721;41.740;-88.000;2023-03-14T05:35:34;99787.88;;;-2.44;47.63
45991;BME280;31721;41.740;-88.000;2023-03-14T05:38:02;99787.78;;;-2.43;47.47
45991;BME280;31721;41.740;-88.000;2023-03-14T05:40:30;99788.28;;;-2.61;47.41
45991;BME280;31721;41.740;-88.000;2023-03-14T05:42:58;99789.27;;;-2.44;47.44
45991;BME280;31721;41.740;-88.000;2023-03-14T05:45:26;99788.75;;;-2.41;47.34
45991;BME280;31721;41.740;-88.000;2023-03-14T05:47:54;99786.55;;;-2.74;47.15
45991;BME280;31721;41.740;-88.000;2023-03-14T05:50:22;99787.67;;;-2.63;47.49
45991;BME280;31721;41.740;-88.000;2023-03-14T05:52:49;99788.77;;;-2.53;47.68
45991;BME280;31721;41.740;-88.000;2023-03-14T05:55:17;99787.18;;;-2.66;47.37
45991;BME280;31721;41.740;-88.000;2023-03-14T05:57:45;99785.40;;;-2.53;47.37
45991;BME280;31721;41.740;-88.000;2023-03-14T06:00:14;99786.70;;;-2.50;47.26
45991;BME280;31721;41.740;-88.000;2023-03-14T06:02:41;99785.66;;;-2.53;47.08
45991;BME280;31721;41.740;-88.000;2023-03-14T06:05:09;99785.66;;;-2.49;47.12
45991;BME280;31721;41.740;-88.000;2023-03-14T06:07:38;99783.97;;;-2.56;47.06
45991;BME280;31721;41.740;-88.000;2023-03-14T06:10:06;99790.23;;;-2.53;47.01
45991;BME280;31721;41.740;-88.000;2023-03-14T06:12:35;99792.89;;;-2.54;47.00
45991;BME280;31721;41.740;-88.000;2023-03-14T06:15:03;99791.13;;;-2.57;46.94
45991;BME280;31721;41.740;-88.000;2023-03-14T06:17:31;99794.02;;;-2.55;46.96
45991;BME280;31721;41.740;-88.000;2023-03-14T06:19:59;99793.42;;;-2.60;46.94
45991;BME280;31721;41.740;-88.000;2023-03-14T06:22:27;99794.02;;;-2.66;46.99
45991;BME280;31721;41.740;-88.000;2023-03-14T06:24:54;99796.70;;;-2.70;47.01
45991;BME280;31721;41.740;-88.000;2023-03-14T06:27:23;99795.92;;;-2.65;47.05
45991;BME280;31721;41.740;-88.000;2023-03-14T06:29:50;99801.39;;;-2.58;47.15
45991;BME280;31721;41.740;-88.000;2023-03-14T06:32:18;99803.16;;;-2.65;47.02
45991;BME280;31721;41.740;-88.000;2023-03-14T06:34:46;99808.55;;;-2.78;46.84
45991;BME280;31721;41.740;-88.000;2023-03-14T06:37:13;99809.25;;;-2.80;46.81
45991;BME280;31721;41.740;-88.000;2023-03-14T06:39:42;99807.79;;;-3.03;46.74
45991;BME280;31721;41.740;-88.000;2023-03-14T06:42:10;99809.28;;;-2.85;46.94
45991;BME280;31721;41.740;-88.000;2023-03-14T06:44:38;99808.90;;;-2.81;47.03
45991;BME280;31721;41.740;-88.000;2023-03-14T06:47:06;99810.10;;;-2.97;46.72
45991;BME280;31721;41.740;-88.000;2023-03-14T06:49:34;99808.01;;;-3.01;46.19
45991;BME280;31721;41.740;-88.000;2023-03-14T06:52:02;99811.97;;;-2.89;46.79
45991;BME280;31721;41.740;-88.000;2023-03-14T06:54:30;99813.16;;;-2.83;47.02
45991;BME280;31721;41.740;-88.000;2023-03-14T06:56:58;99813.24;;;-2.75;46.82
45991;BME280;31721;41.740;-88.000;2023-03-14T06:59:26;99815.19;;;-2.77;46.83
45991;BME280;31721;41.740;-88.000;2023-03-14T07:01:54;99817.24;;;-2.76;46.77
45991;BME280;31721;41.740;-88.000;2023-03-14T07:04:22;99816.59;;;-2.76;46.56
45991;BME280;31721;41.740;-88.000;2023-03-14T07:06:49;99815.57;;;-2.77;46.66
45991;BME280;31721;41.740;-88.000;2023-03-14T07:09:17;99819.91;;;-2.73;46.68
45991;BME280;31721;41.740;-88.000;2023-03-14T07:11:44;99820.01;;;-2.81;46.69
45991;BME280;31721;41.740;-88.000;2023-03-14T07:14:13;99823.98;;;-2.85;46.67
45991;BME280;31721;41.740;-88.000;2023-03-14T07:16:40;99823.25;;;-3.12;46.81
45991;BME280;31721;41.740;-88.000;2023-03-14T07:19:09;99828.46;;;-3.04;47.03
45991;BME280;31721;41.740;-88.000;2023-03-14T07:21:37;99828.84;;;-3.21;47.02
45991;BME280;31721;41.740;-88.000;2023-03-14T07:24:04;99830.48;;;-3.17;47.06
45991;BME280;31721;41.740;-88.000;2023-03-14T07:26:32;99830.41;;;-3.01;47.06
45991;BME280;31721;41.740;-88.000;2023-03-14T07:29:00;99830.05;;;-3.43;46.36
45991;BME280;31721;41.740;-88.000;2023-03-14T07:31:29;99834.27;;;-3.43;46.77
45991;BME280;31721;41.740;-88.000;2023-03-14T07:33:57;99836.33;;;-3.59;46.43
45991;BME280;31721;41.740;-88.000;2023-03-14T07:36:25;99833.54;;;-3.81;47.26
45991;BME280;31721;41.740;-88.000;2023-03-14T07:38:52;99837.70;;;-3.71;47.17
45991;BME280;31721;41.740;-88.000;2023-03-14T07:41:20;99838.96;;;-3.49;47.28
45991;BME280;31721;41.740;-88.000;2023-03-14T07:43:48;99839.73;;;-3.62;47.22
45991;BME280;31721;41.740;-88.000;2023-03-14T07:46:16;99841.33;;;-3.49;47.30
45991;BME280;31721;41.740;-88.000;2023-03-14T07:48:43;99837.98;;;-3.45;47.27
45991;BME280;31721;41.740;-88.000;2023-03-14T07:51:12;99838.62;;;-3.33;47.12
45991;BME280;31721;41.740;-88.000;2023-03-14T07:53:39;99835.20;;;-3.41;47.08
45991;BME280;31721;41.740;-88.000;2023-03-14T07:56:07;99836.38;;;-3.48;47.15
45991;BME280;31721;41.740;-88.000;2023-03-14T07:58:36;99834.75;;;-3.47;47.13
45991;BME280;31721;41.740;-88.000;2023-03-14T08:01:04;99832.52;;;-3.35;47.26
45991;BME280;31721;41.740;-88.000;2023-03-14T08:03:32;99832.57;;;-3.47;47.01
45991;BME280;31721;41.740;-88.000;2023-03-14T08:06:00;99831.67;;;-3.39;47.05
45991;BME280;31721;41.740;-88.000;2023-03-14T08:08:28;99830.98;;;-3.52;46.99
45991;BME280;31721;41.740;-88.000;2023-03-14T08:10:55;99827.90;;;-3.45;47.15
45991;BME280;31721;41.740;-88.000;2023-03-14T08:13:23;99830.26;;;-3.62;46.96
45991;BME280;31721;41.740;-88.000;2023-03-14T08:15:51;99828.89;;;-3.63;47.11
45991;BME280;31721;41.740;-88.000;2023-03-14T08:18:18;99830.41;;;-3.76;46.98
45991;BME280;31721;41.740;-88.000;2023-03-14T08:20:46;99836.09;;;-3.98;47.15
45991;BME280;31721;41.740;-88.000;2023-03-14T08:23:14;99835.18;;;-3.77;47.22
45991;BME280;31721;41.740;-88.000;2023-03-14T08:25:42;99836.51;;;-3.75;47.29
45991;BME280;31721;41.740;-88.000;2023-03-14T08:28:10;99839.03;;;-3.73;47.24
45991;BME280;31721;41.740;-88.000;2023-03-14T08:30:38;99838.29;;;-3.58;47.44
45991;BME280;31721;41.740;-88.000;2023-03-14T08:33:05;99839.87;;;-3.71;47.36
45991;BME280;31721;41.740;-88.000;2023-03-14T08:35:33;99839.88;;;-3.73;47.20
45991;BME280;31721;41.740;-88.000;2023-03-14T08:38:01;99843.46;;;-3.58;47.21
45991;BME280;31721;41.740;-88.000;2023-03-14T08:40:29;99845.68;;;-3.65;47.19
45991;BME280;31721;41.740;-88.000;2023-03-14T08:42:57;99845.12;;;-3.70;47.16
45991;BME280;31721;41.740;-88.000;2023-03-14T08:45:24;99850.07;;;-3.67;47.28
45991;BME280;31721;41.740;-88.000;2023-03-14T08:47:52;99854.77;;;-3.56;47.25
45991;BME280;31721;41.740;-88.000;2023-03-14T08:50:20;99858.92;;;-3.55;47.32
45991;BME280;31721;41.740;-88.000;2023-03-14T08:52:48;99855.51;;;-3.62;47.37
45991;BME280;31721;41.740;-88.000;2023-03-14T08:55:16;99855.20;;;-3.65;47.27
45991;BME280;31721;41.740;-88.000;2023-03-14T08:57:44;99859.79;;;-3.67;47.08
45991;BME280;31721;41.740;-88.000;2023-03-14T09:00:12;99858.67;;;-3.65;47.13
45991;BME280;31721;41.740;-88.000;2023-03-14T09:02:40;99862.08;;;-3.95;47.23
45991;BME280;31721;41.740;-88.000;2023-03-14T09:05:09;99858.89;;;-4.26;47.15
45991;BME280;31721;41.740;-88.000;2023-03-14T09:07:37;99862.74;;;-4.78;48.00
45991;BME280;31721;41.740;-88.000;2023-03-14T09:10:06;99867.14;;;-4.70;47.78
45991;BME280;31721;41.740;-88.000;2023-03-14T09:12:34;99867.88;;;-4.54;48.08
45991;BME280;31721;41.740;-88.000;2023-03-14T09:15:02;99868.86;;;-4.50;47.84
45991;BME280;31721;41.740;-88.000;2023-03-14T09:17:30;99870.82;;;-4.32;47.91
45991;BME280;31721;41.740;-88.000;2023-03-14T09:19:58;99869.94;;;-4.30;47.75
45991;BME280;31721;41.740;-88.000;2023-03-14T09:22:26;99871.26;;;-4.42;47.54
45991;BME280;31721;41.740;-88.000;2023-03-14T09:24:54;99871.14;;;-4.36;47.50
45991;BME280;31721;41.740;-88.000;2023-03-14T09:27:22;99873.65;;;-4.52;47.62
45991;BME280;31721;41.740;-88.000;2023-03-14T09:29:49;99874.54;;;-4.64;47.40
45991;BME280;31721;41.740;-88.000;2023-03-14T09:32:18;99880.69;;;-5.16;48.11
45991;BME280;31721;41.740;-88.000;2023-03-14T09:34:46;99880.60;;;-5.06;48.03
45991;BME280;31721;41.740;-88.000;2023-03-14T09:37:14;99878.46;;;-4.86;48.10
45991;BME280;31721;41.740;-88.000;2023-03-14T09:39:41;99881.90;;;-4.81;47.97
45991;BME280;31721;41.740;-88.000;2023-03-14T09:42:15;99885.38;;;-4.68;47.97
45991;BME280;31721;41.740;-88.000;2023-03-14T09:44:51;99891.50;;;-4.53;48.09
45991;BME280;31721;41.740;-88.000;2023-03-14T09:47:21;99892.53;;;-4.45;47.78
45991;BME280;31721;41.740;-88.000;2023-03-14T09:49:50;99890.59;;;-4.70;47.96
45991;BME280;31721;41.740;-88.000;2023-03-14T09:52:22;99898.39;;;-4.61;47.83
45991;BME280;31721;41.740;-88.000;2023-03-14T09:54:54;99901.90;;;-4.66;47.82
45991;BME280;31721;41.740;-88.000;2023-03-14T09:57:26;99905.63;;;-4.63;47.79
45991;BME280;31721;41.740;-88.000;2023-03-14T09:59:58;99910.61;;;-4.40;47.93
45991;BME280;31721;41.740;-88.000;2023-03-14T10:02:33;99916.60;;;-4.46;47.77
45991;BME280;31721;41.740;-88.000;2023-03-14T10:05:04;99919.12;;;-4.78;47.77
45991;BME280;31721;41.740;-88.000;2023-03-14T10:07:33;99919.84;;;-4.87;47.80
45991;BME280;31721;41.740;-88.000;2023-03-14T10:10:08;99925.44;;;-5.21;48.02
45991;BME280;31721;41.740;-88.000;2023-03-14T10:12:37;99932.76;;;-5.31;48.21
45991;BME280;31721;41.740;-88.000;2023-03-14T10:15:08;99935.55;;;-5.12;48.32
45991;BME280;31721;41.740;-88.000;2023-03-14T10:17:41;99945.19;;;-4.88;48.26
45991;BME280;31721;41.740;-88.000;2023-03-14T10:20:27;99947.57;;;-5.38;48.36
45991;BME280;31721;41.740;-88.000;2023-03-14T10:22:55;99947.67;;;-5.66;48.45
45991;BME280;31721;41.740;-88.000;2023-03-14T10:25:27;99952.17;;;-5.74;48.77
45991;BME280;31721;41.740;-88.000;2023-03-14T10:27:55;99955.52;;;-6.02;48.96
45991;BME280;31721;41.740;-88.000;2023-03-14T10:30:38;99961.46;;;-6.21;48.99
45991;BME280;31721;41.740;-88.000;2023-03-14T10:33:10;99963.26;;;-6.31;49.38
45991;BME280;31721;41.740;-88.000;2023-03-14T10:35:39;99965.74;;;-6.11;49.37
45991;BME280;31721;41.740;-88.000;2023-03-14T10:38:13;99968.83;;;-6.26;49.54
45991;BME280;31721;41.740;-88.000;2023-03-14T10:40:47;99972.62;;;-6.38;49.99
45991;BME280;31721;41.740;-88.000;2023-03-14T10:43:18;99975.82;;;-5.96;49.25
45991;BME280;31721;41.740;-88.000;2023-03-14T10:45:52;99976.89;;;-5.96;49.33
45991;BME280;31721;41.740;-88.000;2023-03-14T10:48:24;99977.02;;;-6.40;49.82
45991;BME280;31721;41.740;-88.000;2023-03-14T10:50:56;99978.74;;;-6.25;49.71
45991;BME280;31721;41.740;-88.000;2023-03-14T10:53:26;99980.75;;;-6.36;49.03
45991;BME280;31721;41.740;-88.000;2023-03-14T10:55:56;99987.15;;;-6.53;49.71
45991;BME280;31721;41.740;-88.000;2023-03-14T10:58:26;99984.96;;;-6.20;49.14
45991;BME280;31721;41.740;-88.000;2023-03-14T11:01:02;99988.87;;;-6.45;49.44
45991;BME280;31721;41.740;-88.000;2023-03-14T11:03:35;99990.75;;;-6.47;49.70
45991;BME280;31721;41.740;-88.000;2023-03-14T11:06:10;99990.25;;;-6.17;49.25
45991;BME280;31721;41.740;-88.000;2023-03-14T11:08:48;99995.12;;;-6.10;49.04
45991;BME280;31721;41.740;-88.000;2023-03-14T11:11:21;99995.68;;;-6.16;48.83
45991;BME280;31721;41.740;-88.000;2023-03-14T11:13:59;100002.82;;;-6.19;49.04
45991;BME280;31721;41.740;-88.000;2023-03-14T11:16:34;100002.65;;;-6.30;48.94
45991;BME280;31721;41.740;-88.000;2023-03-14T11:19:17;100004.84;;;-5.81;48.68
45991;BME280;31721;41.740;-88.000;2023-03-14T11:21:53;100005.68;;;-5.84;48.66
45991;BME280;31721;41.740;-88.000;2023-03-14T11:24:33;100007.24;;;-5.84;48.54
45991;BME280;31721;41.740;-88.000;2023-03-14T11:27:15;100010.61;;;-6.00;48.54
45991;BME280;31721;41.740;-88.000;2023-03-14T11:29:53;100011.64;;;-6.46;48.93
45991;BME280;31721;41.740;-88.000;2023-03-14T11:32:31;100012.87;;;-6.05;48.74
45991;BME280;31721;41.740;-88.000;2023-03-14T11:35:04;100016.40;;;-6.14;48.72
45991;BME280;31721;41.740;-88.000;2023-03-14T11:37:43;100015.03;;;-5.95;48.59
45991;BME280;31721;41.740;-88.000;2023-03-14T11:40:18;100019.92;;;-5.90;48.64
45991;BME280;31721;41.740;-88.000;2023-03-14T11:42:53;100022.15;;;-5.82;48.48
45991;BME280;31721;41.740;-88.000;2023-03-14T11:45:27;100027.25;;;-5.66;48.61
45991;BME280;31721;41.740;-88.000;2023-03-14T11:48:12;100030.01;;;-5.61;48.46
45991;BME280;31721;41.740;-88.000;2023-03-14T11:50:44;100030.39;;;-5.54;48.29
45991;BME280;31721;41.740;-88.000;2023-03-14T11:53:16;100030.59;;;-5.49;48.19
45991;BME280;31721;41.740;-88.000;2023-03-14T11:55:47;100034.26;;;-5.59;48.03
45991;BME280;31721;41.740;-88.000;2023-03-14T11:58:20;100037.11;;;-5.43;48.14
45991;BME280;31721;41.740;-88.000;2023-03-14T12:00:52;100040.60;;;-5.48;48.05
45991;BME280;31721;41.740;-88.000;2023-03-14T12:03:28;100040.94;;;-5.42;47.97
45991;BME280;31721;41.740;-88.000;2023-03-14T12:06:05;100042.31;;;-5.55;47.69
45991;BME280;31721;41.740;-88.000;2023-03-14T12:08:44;100047.65;;;-5.44;47.98
45991;BME280;31721;41.740;-88.000;2023-03-14T12:11:19;100052.48;;;-5.39;47.91
45991;BME280;31721;41.740;-88.000;2023-03-14T12:13:51;100056.38;;;-5.35;47.98
45991;BME280;31721;41.740;-88.000;2023-03-14T12:16:30;100056.91;;;-5.28;47.85
45991;BME280;31721;41.740;-88.000;2023-03-14T12:19:15;100055.42;;;-5.68;47.61
45991;BME280;31721;41.740;-88.000;2023-03-14T12:21:48;100064.06;;;-5.91;47.80
45991;BME280;31721;41.740;-88.000;2023-03-14T12:24:20;100068.71;;;-6.04;47.43
45991;BME280;31721;41.740;-88.000;2023-03-14T12:26:54;100069.47;;;-6.06;47.88
45991;BME280;31721;41.740;-88.000;2023-03-14T12:29:22;100071.44;;;-6.22;47.56
45991;BME280;31721;41.740;-88.000;2023-03-14T12:32:07;100070.48;;;-6.53;47.86
45991;BME280;31721;41.740;-88.000;2023-03-14T12:34:40;100071.77;;;-6.28;48.10
45991;BME280;31721;41.740;-88.000;2023-03-14T12:37:21;100074.19;;;-6.29;48.07
45991;BME280;31721;41.740;-88.000;2023-03-14T12:40:00;100075.82;;;-6.60;47.95
45991;BME280;31721;41.740;-88.000;2023-03-14T12:42:43;100078.62;;;-6.59;48.28
45991;BME280;31721;41.740;-88.000;2023-03-14T12:45:24;100079.80;;;-6.89;48.46
45991;BME280;31721;41.740;-88.000;2023-03-14T12:48:02;100084.94;;;-7.32;49.13
45991;BME280;31721;41.740;-88.000;2023-03-14T12:50:36;100086.32;;;-7.01;48.69
45991;BME280;31721;41.740;-88.000;2023-03-14T12:54:06;100091.59;;;-7.07;48.69